Terminal Aerodrome Forecast
Issued by NWS

Home | Current Version | Previous Version | Text Only | Print | Product List | Glossary On
Versions: 1 2 3 4 5 6 7 8 9 10 11 12 13 14 15 16 17 18 19 20 21 22 23 24 25 26 27 28
000
FTUS42 KMHX 020803 AAA
TAFOAJ
TAF AMD
KOAJ 020803Z 0208/0306 VRB04KT 4SM BR SCT008 BKN020
     FM020900 19004KT 4SM BR BKN008
     FM021300 22010KT P6SM BKN040
     FM021900 20011G17KT P6SM VCTS BKN040CB
     FM030000 18008KT P6SM BKN040
      AMD LTD TO CLD VIS AND WIND=

USA.gov is the U.S. government's official web portal to all federal, state and local government web resources and services.